Time;durP1;ratioP1;P1;durP2;ratioP2;P2;SDS_P1;SDS_P2;PMS_P1;PMS_P2;Temp;Humidity;BMP_temperature;BMP_pressure;BME280_temperature;BME280_humidity;BME280_pressure;Samples;Min_cycle;Max_cycle;Signal;HPM_P1;HPM_P2
2022/08/18 00:01:06;;;;;;;;;;;22.70;99.90;;;;;;4947445;29;20815;-65
2022/08/18 00:03:33;;;;;;;;;;;22.60;99.90;;;;;;4947078;29;20856;-65
2022/08/18 00:06:21;;;;;;;;;;;22.60;99.90;;;;;;4946649;29;20070;-65
2022/08/18 00:08:50;;;;;;;;;;;22.70;99.90;;;;;;4947949;29;20529;-66
2022/08/18 00:11:20;;;;;;;;;;;22.80;99.90;;;;;;4950305;28;20687;-66
2022/08/18 00:13:47;;;;;;;;;;;22.80;99.90;;;;;;4952990;28;20637;-65
2022/08/18 00:16:15;;;;;;;;;;;22.90;99.90;;;;;;4955848;28;20507;-65
2022/08/18 00:18:43;;;;;;;;;;;22.90;99.90;;;;;;4953127;29;21027;-66
2022/08/18 00:21:11;;;;;;;;;;;22.90;99.90;;;;;;4952526;29;20279;-66
2022/08/18 00:23:39;;;;;;;;;;;22.80;99.90;;;;;;4952274;29;20694;-65
2022/08/18 00:26:08;;;;;;;;;;;22.80;99.90;;;;;;4952616;28;25068;-65
2022/08/18 00:28:36;;;;;;;;;;;22.90;99.90;;;;;;4950386;28;20346;-65
2022/08/18 00:31:04;;;;;;;;;;;22.80;99.90;;;;;;4951961;29;20762;-65
2022/08/18 00:33:32;;;;;;;;;;;22.80;99.90;;;;;;4953339;29;21093;-66
2022/08/18 00:36:00;;;;;;;;;;;22.90;99.90;;;;;;4952914;29;20921;-65
2022/08/18 00:38:28;;;;;;;;;;;22.90;99.90;;;;;;4953153;29;20270;-66
2022/08/18 00:40:56;;;;;;;;;;;22.90;99.90;;;;;;4949600;29;20361;-66
2022/08/18 00:43:30;;;;;;;;;;;22.80;99.90;;;;;;4951855;29;21090;-66
2022/08/18 00:45:58;;;;;;;;;;;22.80;99.90;;;;;;4951965;29;20575;-66
2022/08/18 00:48:28;;;;;;;;;;;22.90;99.90;;;;;;4951798;28;20764;-66
2022/08/18 00:50:57;;;;;;;;;;;23.00;99.90;;;;;;4948504;28;21125;-66
2022/08/18 00:53:28;;;;;;;;;;;23.00;99.90;;;;;;4951578;28;21258;-65
2022/08/18 00:55:58;;;;;;;;;;;23.00;99.90;;;;;;4953229;29;20425;-65
2022/08/18 00:58:32;;;;;;;;;;;22.90;99.90;;;;;;4948231;29;20507;-65
2022/08/18 01:01:04;;;;;;;;;;;22.90;99.90;;;;;;4951839;29;20729;-65
2022/08/18 01:03:32;;;;;;;;;;;22.80;99.90;;;;;;4948889;29;20950;-65
2022/08/18 01:06:03;;;;;;;;;;;22.80;99.90;;;;;;4952009;29;20856;-64
2022/08/18 01:08:31;;;;;;;;;;;22.90;99.90;;;;;;4951645;28;20757;-65
2022/08/18 01:11:01;;;;;;;;;;;22.90;99.90;;;;;;4952256;28;20671;-65
2022/08/18 01:13:31;;;;;;;;;;;22.90;99.90;;;;;;4952132;29;20070;-65
2022/08/18 01:21:49;;;;;;;;;;;23.00;99.90;;;;;;4949027;29;20743;-64
2022/08/18 01:21:52;;;;;;;;;;;23.00;99.90;;;;;;4948793;29;20575;-64
2022/08/18 01:25:58;;;;;;;;;;;22.90;99.90;;;;;;4954105;29;20844;-64
2022/08/18 01:27:11;;;;;;;;;;;22.90;99.90;;;;;;4951053;28;20572;-64
2022/08/18 01:29:39;;;;;;;;;;;22.90;99.90;;;;;;4947375;28;20224;-64
2022/08/18 01:32:11;;;;;;;;;;;22.90;99.90;;;;;;4948834;28;20248;-64
2022/08/18 01:34:39;;;;;;;;;;;22.90;99.90;;;;;;4950462;29;20374;-64
2022/08/18 01:37:06;;;;;;;;;;;22.90;99.90;;;;;;4950720;29;20782;-64
2022/08/18 01:39:37;;;;;;;;;;;22.90;99.90;;;;;;4949502;28;20674;-64
2022/08/18 01:42:25;;;;;;;;;;;23.00;99.90;;;;;;4950490;29;20782;-64
2022/08/18 01:44:54;;;;;;;;;;;22.90;99.90;;;;;;4950729;29;20179;-64
2022/08/18 01:47:21;;;;;;;;;;;22.90;99.90;;;;;;4947676;28;20512;-64
2022/08/18 01:49:49;;;;;;;;;;;22.90;99.90;;;;;;4952499;29;20893;-64
2022/08/18 01:52:19;;;;;;;;;;;22.80;99.90;;;;;;4950602;29;20283;-65
2022/08/18 01:54:49;;;;;;;;;;;22.90;99.90;;;;;;4951140;29;20723;-64
2022/08/18 01:57:17;;;;;;;;;;;22.90;99.90;;;;;;4950148;29;20999;-64
2022/08/18 01:59:46;;;;;;;;;;;22.90;99.90;;;;;;4948788;28;20048;-65
2022/08/18 02:02:15;;;;;;;;;;;22.90;99.90;;;;;;4948066;29;25065;-65
2022/08/18 02:04:46;;;;;;;;;;;23.00;99.90;;;;;;4949527;29;20849;-63
2022/08/18 02:07:14;;;;;;;;;;;23.10;99.90;;;;;;4955100;28;21089;-63
2022/08/18 02:09:42;;;;;;;;;;;23.10;99.90;;;;;;4945711;28;20505;-64
2022/08/18 02:12:12;;;;;;;;;;;23.00;99.90;;;;;;4947072;29;20480;-64
2022/08/18 02:14:40;;;;;;;;;;;22.90;99.90;;;;;;4948355;29;25064;-64
2022/08/18 02:17:09;;;;;;;;;;;22.90;99.90;;;;;;4950241;29;20744;-64
2022/08/18 02:19:38;;;;;;;;;;;23.00;99.90;;;;;;4950660;28;20206;-64
2022/08/18 02:22:07;;;;;;;;;;;23.10;99.90;;;;;;4948308;29;20605;-64
2022/08/18 02:24:34;;;;;;;;;;;23.20;99.90;;;;;;4951382;29;25114;-64
2022/08/18 02:27:02;;;;;;;;;;;23.20;99.90;;;;;;4948077;28;20103;-64
2022/08/18 02:29:31;;;;;;;;;;;23.20;99.90;;;;;;4948685;29;20438;-64
2022/08/18 02:31:59;;;;;;;;;;;23.20;99.90;;;;;;4948792;29;20283;-64
2022/08/18 02:34:27;;;;;;;;;;;23.10;99.90;;;;;;4946538;29;20690;-64
2022/08/18 02:36:55;;;;;;;;;;;23.10;99.90;;;;;;4950676;29;20673;-64
2022/08/18 02:39:22;;;;;;;;;;;22.90;99.90;;;;;;4947446;28;20815;-64
2022/08/18 02:41:50;;;;;;;;;;;22.90;99.90;;;;;;4952704;29;25078;-66
2022/08/18 02:44:18;;;;;;;;;;;22.80;99.90;;;;;;4954128;29;20158;-65
2022/08/18 02:46:51;;;;;;;;;;;22.90;99.90;;;;;;4950169;28;20266;-64
2022/08/18 02:49:19;;;;;;;;;;;22.90;99.90;;;;;;4949786;28;20874;-64
2022/08/18 02:51:47;;;;;;;;;;;22.70;99.90;;;;;;4948410;29;20879;-63
2022/08/18 02:54:15;;;;;;;;;;;22.70;99.90;;;;;;4947984;29;20982;-64
2022/08/18 02:56:44;;;;;;;;;;;22.70;99.90;;;;;;4949086;29;20871;-64
2022/08/18 02:59:13;;;;;;;;;;;22.60;99.90;;;;;;4946783;29;20439;-64
2022/08/18 03:01:46;;;;;;;;;;;22.60;99.90;;;;;;4943142;28;19993;-64
2022/08/18 03:04:18;;;;;;;;;;;22.40;99.90;;;;;;4948584;29;20622;-63
2022/08/18 03:06:49;;;;;;;;;;;22.40;99.90;;;;;;4949528;28;20016;-63
2022/08/18 03:09:17;;;;;;;;;;;22.30;99.90;;;;;;4951879;28;20444;-63
2022/08/18 03:11:45;;;;;;;;;;;22.30;99.90;;;;;;4948540;29;20053;-64
2022/08/18 03:14:13;;;;;;;;;;;22.50;99.90;;;;;;4947795;29;20004;-63
2022/08/18 03:16:43;;;;;;;;;;;22.40;99.90;;;;;;4947564;29;20011;-64
2022/08/18 03:19:22;;;;;;;;;;;22.50;99.90;;;;;;4950729;28;20450;-63
2022/08/18 03:21:51;;;;;;;;;;;22.30;99.90;;;;;;4948760;28;20107;-64
2022/08/18 03:24:19;;;;;;;;;;;22.40;99.90;;;;;;4952831;28;20236;-63
2022/08/18 03:26:50;;;;;;;;;;;22.40;99.90;;;;;;4948354;29;20109;-65
2022/08/18 03:29:18;;;;;;;;;;;22.40;99.90;;;;;;4946759;28;20614;-65
2022/08/18 03:31:47;;;;;;;;;;;22.40;99.90;;;;;;4953504;29;20692;-64
2022/08/18 03:34:18;;;;;;;;;;;22.40;99.90;;;;;;4953284;29;21187;-65
2022/08/18 03:36:48;;;;;;;;;;;22.40;99.90;;;;;;4952985;28;20575;-64
2022/08/18 03:39:17;;;;;;;;;;;22.30;99.90;;;;;;4951267;28;21011;-64
2022/08/18 03:41:45;;;;;;;;;;;22.20;99.90;;;;;;4955312;28;20611;-64
2022/08/18 03:44:27;;;;;;;;;;;22.20;99.90;;;;;;4955520;28;21022;-64
2022/08/18 03:46:56;;;;;;;;;;;22.10;99.90;;;;;;4953200;28;19977;-65
2022/08/18 03:49:23;;;;;;;;;;;22.10;99.90;;;;;;4953142;28;20447;-65
2022/08/18 03:51:53;;;;;;;;;;;22.20;99.90;;;;;;4953044;28;19969;-65
2022/08/18 03:54:21;;;;;;;;;;;22.10;99.90;;;;;;4940653;29;20036;-64
2022/08/18 03:56:49;;;;;;;;;;;22.00;99.90;;;;;;4938414;29;20146;-64
2022/08/18 03:59:18;;;;;;;;;;;22.10;99.90;;;;;;4937055;28;20451;-64
2022/08/18 04:01:47;;;;;;;;;;;22.10;99.90;;;;;;4937849;28;20092;-64
2022/08/18 04:04:17;;;;;;;;;;;22.10;99.90;;;;;;4938629;28;20985;-64
2022/08/18 04:06:48;;;;;;;;;;;22.10;99.90;;;;;;4935788;28;19997;-64
2022/08/18 04:09:18;;;;;;;;;;;22.10;99.90;;;;;;4937109;28;19987;-66
2022/08/18 04:11:47;;;;;;;;;;;22.00;99.90;;;;;;4938120;28;20679;-65
2022/08/18 04:14:17;;;;;;;;;;;22.00;99.90;;;;;;4936682;28;20007;-64
2022/08/18 04:16:45;;;;;;;;;;;21.90;99.90;;;;;;4936235;28;20186;-66
2022/08/18 04:19:13;;;;;;;;;;;21.80;99.90;;;;;;4939296;28;20958;-65
2022/08/18 04:21:54;;;;;;;;;;;21.60;99.90;;;;;;4938655;29;19996;-63
2022/08/18 04:24:24;;;;;;;;;;;21.40;99.90;;;;;;4936597;28;20523;-63
2022/08/18 04:26:52;;;;;;;;;;;21.40;99.90;;;;;;4933682;28;19995;-64
2022/08/18 04:29:20;;;;;;;;;;;21.50;99.90;;;;;;4936036;29;20030;-65
2022/08/18 04:31:49;;;;;;;;;;;21.50;99.90;;;;;;4938082;29;20002;-64
2022/08/18 04:34:17;;;;;;;;;;;21.60;99.90;;;;;;4937989;28;20028;-64
2022/08/18 04:36:45;;;;;;;;;;;21.60;99.90;;;;;;4935488;28;20025;-64
2022/08/18 04:39:13;;;;;;;;;;;21.50;99.90;;;;;;4937241;28;19971;-66
2022/08/18 04:41:43;;;;;;;;;;;21.60;99.90;;;;;;4937685;28;19967;-64
2022/08/18 04:44:11;;;;;;;;;;;21.60;99.90;;;;;;4938854;29;20026;-65
2022/08/18 04:46:40;;;;;;;;;;;21.70;99.90;;;;;;4933896;28;19982;-64
2022/08/18 04:49:09;;;;;;;;;;;21.80;99.90;;;;;;4938047;28;19995;-65
2022/08/18 04:51:40;;;;;;;;;;;21.90;99.90;;;;;;4936273;28;19979;-65
2022/08/18 04:54:27;;;;;;;;;;;21.80;99.90;;;;;;4938634;28;19994;-64
2022/08/18 04:56:59;;;;;;;;;;;21.80;99.90;;;;;;4936174;28;19971;-64
2022/08/18 04:59:27;;;;;;;;;;;21.80;99.90;;;;;;4934582;28;20061;-64
2022/08/18 05:01:54;;;;;;;;;;;21.90;99.90;;;;;;4934631;28;19983;-66
2022/08/18 05:04:24;;;;;;;;;;;22.00;99.90;;;;;;4937409;28;19983;-64
2022/08/18 05:06:52;;;;;;;;;;;22.10;99.90;;;;;;4933466;29;20025;-65
2022/08/18 05:09:20;;;;;;;;;;;22.10;99.90;;;;;;4935474;28;20039;-64
2022/08/18 05:11:50;;;;;;;;;;;22.30;99.90;;;;;;4938075;28;20451;-64
2022/08/18 05:14:20;;;;;;;;;;;22.20;99.90;;;;;;4933829;28;19967;-64
2022/08/18 05:16:48;;;;;;;;;;;22.20;99.90;;;;;;4934904;29;19988;-64
2022/08/18 05:19:20;;;;;;;;;;;22.30;99.90;;;;;;4933872;28;20013;-64
2022/08/18 05:21:50;;;;;;;;;;;22.40;99.90;;;;;;4936224;28;20330;-64
2022/08/18 05:24:18;;;;;;;;;;;22.50;99.90;;;;;;4934483;28;20078;-65
2022/08/18 05:26:47;;;;;;;;;;;22.50;99.90;;;;;;4935975;28;19974;-64
2022/08/18 05:29:15;;;;;;;;;;;22.40;99.90;;;;;;4933978;28;19972;-64
2022/08/18 05:31:48;;;;;;;;;;;22.40;99.90;;;;;;4935378;28;19992;-65
2022/08/18 05:34:16;;;;;;;;;;;22.40;99.90;;;;;;4937329;28;19971;-65
2022/08/18 05:36:57;;;;;;;;;;;22.50;99.90;;;;;;4935156;28;20869;-64
2022/08/18 05:39:28;;;;;;;;;;;22.70;99.90;;;;;;4934404;28;20505;-64
2022/08/18 05:42:00;;;;;;;;;;;22.80;99.90;;;;;;4934058;28;20878;-64
2022/08/18 05:44:29;;;;;;;;;;;22.70;99.90;;;;;;4934526;28;26146;-64
2022/08/18 05:47:00;;;;;;;;;;;22.60;99.90;;;;;;4933790;28;20019;-64
2022/08/18 05:49:28;;;;;;;;;;;22.50;99.90;;;;;;4935802;28;20059;-66
2022/08/18 05:51:58;;;;;;;;;;;22.30;99.90;;;;;;4936750;28;20099;-64
2022/08/18 05:57:16;;;;;;;;;;;22.30;99.90;;;;;;4934462;29;20630;-65
2022/08/18 05:59:45;;;;;;;;;;;22.20;99.90;;;;;;4935796;29;19995;-65
2022/08/18 06:02:18;;;;;;;;;;;22.20;99.90;;;;;;4934829;29;20108;-65
2022/08/18 06:04:49;;;;;;;;;;;22.20;99.90;;;;;;4934738;28;20515;-65
2022/08/18 06:07:18;;;;;;;;;;;22.00;99.90;;;;;;4932747;29;20418;-66
2022/08/18 06:09:48;;;;;;;;;;;21.90;99.90;;;;;;4934532;28;20024;-66
2022/08/18 06:12:21;;;;;;;;;;;21.80;99.90;;;;;;4938914;29;20054;-64
2022/08/18 06:14:49;;;;;;;;;;;21.80;99.90;;;;;;4956259;28;20988;-65
2022/08/18 06:17:27;;;;;;;;;;;21.90;99.90;;;;;;4954511;29;20915;-66
2022/08/18 06:20:00;;;;;;;;;;;21.90;99.90;;;;;;4956843;28;20214;-65
2022/08/18 06:22:30;;;;;;;;;;;21.90;99.90;;;;;;4954680;28;21164;-65
2022/08/18 06:25:01;;;;;;;;;;;21.80;99.90;;;;;;4954391;29;20002;-65
2022/08/18 06:27:39;;;;;;;;;;;21.70;99.90;;;;;;4953902;29;19991;-66
2022/08/18 06:30:10;;;;;;;;;;;21.80;99.90;;;;;;4954238;28;20014;-65
2022/08/18 06:32:44;;;;;;;;;;;21.90;99.90;;;;;;4954413;29;20851;-65
2022/08/18 06:35:17;;;;;;;;;;;21.90;99.90;;;;;;4968462;28;20531;-65
2022/08/18 06:40:35;;;;;;;;;;;21.70;99.90;;;;;;4951563;29;20765;-66
2022/08/18 06:43:03;;;;;;;;;;;21.70;99.90;;;;;;4953717;29;20864;-66
2022/08/18 06:45:34;;;;;;;;;;;21.60;99.90;;;;;;4954013;29;20053;-66
2022/08/18 06:48:11;;;;;;;;;;;21.50;99.90;;;;;;4954154;28;20093;-66
2022/08/18 06:50:47;;;;;;;;;;;21.40;99.90;;;;;;4954019;29;20015;-66
2022/08/18 06:53:15;;;;;;;;;;;21.30;99.90;;;;;;4953697;29;20589;-66
2022/08/18 06:55:54;;;;;;;;;;;21.30;99.90;;;;;;4954074;28;20078;-66
2022/08/18 06:58:24;;;;;;;;;;;21.30;99.90;;;;;;4953971;29;20457;-66
2022/08/18 07:00:56;;;;;;;;;;;21.30;99.90;;;;;;4953613;29;19999;-66
2022/08/18 07:03:41;;;;;;;;;;;21.20;99.90;;;;;;4953972;28;20904;-66
2022/08/18 07:06:21;;;;;;;;;;;21.00;99.90;;;;;;4954023;29;20031;-66
2022/08/18 07:08:50;;;;;;;;;;;20.90;99.90;;;;;;4953871;29;19973;-66
2022/08/18 07:11:20;;;;;;;;;;;20.90;99.90;;;;;;4956713;28;20477;-66
2022/08/18 07:13:49;;;;;;;;;;;20.90;99.90;;;;;;4973091;28;19986;-66
2022/08/18 07:16:37;;;;;;;;;;;20.90;99.90;;;;;;4973226;28;19981;-66
2022/08/18 07:19:27;;;;;;;;;;;21.00;99.90;;;;;;4963604;28;20034;-66
2022/08/18 07:22:02;;;;;;;;;;;21.10;99.90;;;;;;4972913;28;20035;-66
2022/08/18 07:24:32;;;;;;;;;;;21.20;99.90;;;;;;4972851;28;20123;-67
2022/08/18 07:27:01;;;;;;;;;;;21.20;99.90;;;;;;4977049;28;19981;-66
2022/08/18 07:29:30;;;;;;;;;;;21.30;99.90;;;;;;4976932;28;20631;-66
2022/08/18 07:32:00;;;;;;;;;;;21.40;99.90;;;;;;4976905;28;20479;-66
2022/08/18 07:34:36;;;;;;;;;;;21.50;99.90;;;;;;4974488;28;20013;-66
2022/08/18 07:37:06;;;;;;;;;;;21.60;99.90;;;;;;4976915;28;19970;-66
2022/08/18 07:39:38;;;;;;;;;;;21.60;99.90;;;;;;4976871;28;20006;-65
2022/08/18 07:42:17;;;;;;;;;;;21.70;99.90;;;;;;4976844;28;20081;-67
2022/08/18 07:45:06;;;;;;;;;;;21.70;99.90;;;;;;4976483;28;20011;-66
2022/08/18 07:47:49;;;;;;;;;;;21.70;99.90;;;;;;4975938;28;20657;-67
2022/08/18 07:50:17;;;;;;;;;;;21.80;99.90;;;;;;4957112;28;20475;-66
2022/08/18 07:53:10;;;;;;;;;;;21.80;99.90;;;;;;4956945;29;20073;-67
2022/08/18 07:55:43;;;;;;;;;;;21.90;99.90;;;;;;4957353;28;20387;-66
2022/08/18 07:58:18;;;;;;;;;;;21.80;99.90;;;;;;4957329;29;19981;-67
2022/08/18 08:00:48;;;;;;;;;;;21.90;99.90;;;;;;4956805;29;19996;-66
2022/08/18 08:03:39;;;;;;;;;;;21.90;99.90;;;;;;4963975;28;20500;-66
2022/08/18 08:06:10;;;;;;;;;;;22.00;99.90;;;;;;4976303;28;19994;-66
2022/08/18 08:08:42;;;;;;;;;;;22.10;99.90;;;;;;4976343;28;19991;-66
2022/08/18 08:11:16;;;;;;;;;;;22.10;99.90;;;;;;4976165;28;19997;-66
2022/08/18 08:13:50;;;;;;;;;;;22.10;99.90;;;;;;4976031;28;19984;-66
2022/08/18 08:16:26;;;;;;;;;;;22.10;99.90;;;;;;4975998;28;20037;-66
2022/08/18 08:18:59;;;;;;;;;;;22.20;99.90;;;;;;4963475;28;19998;-66
2022/08/18 08:21:31;;;;;;;;;;;22.20;99.90;;;;;;4956602;29;20453;-66
2022/08/18 08:24:07;;;;;;;;;;;22.20;99.90;;;;;;4956616;28;20473;-66
2022/08/18 08:26:40;;;;;;;;;;;22.30;99.90;;;;;;4956749;29;20507;-67
2022/08/18 08:29:17;;;;;;;;;;;22.30;99.90;;;;;;4956626;28;20084;-66
2022/08/18 08:31:48;;;;;;;;;;;22.30;99.90;;;;;;4956454;28;20005;-66
2022/08/18 08:34:18;;;;;;;;;;;22.30;99.90;;;;;;4956914;28;19995;-66
2022/08/18 08:36:46;;;;;;;;;;;22.30;99.90;;;;;;4956533;28;19986;-66
2022/08/18 08:39:18;;;;;;;;;;;22.20;99.90;;;;;;4956704;29;19970;-66
2022/08/18 08:41:50;;;;;;;;;;;22.30;99.90;;;;;;4956380;29;20473;-66
2022/08/18 08:44:21;;;;;;;;;;;22.30;99.90;;;;;;4956255;28;20669;-67
2022/08/18 08:46:51;;;;;;;;;;;22.30;99.90;;;;;;4956320;29;20033;-66
2022/08/18 08:49:25;;;;;;;;;;;22.40;99.90;;;;;;4968566;28;20467;-66
2022/08/18 08:51:56;;;;;;;;;;;22.40;99.90;;;;;;4956277;29;20401;-66
2022/08/18 08:54:29;;;;;;;;;;;22.40;99.90;;;;;;4955829;28;20199;-66
2022/08/18 08:56:59;;;;;;;;;;;22.30;99.90;;;;;;4956213;29;20064;-67
2022/08/18 08:59:27;;;;;;;;;;;22.40;99.90;;;;;;4956044;29;20437;-67
2022/08/18 09:01:59;;;;;;;;;;;22.40;99.90;;;;;;4956861;28;20554;-67
2022/08/18 09:04:31;;;;;;;;;;;22.50;99.90;;;;;;4975330;28;20069;-67
2022/08/18 09:07:07;;;;;;;;;;;22.60;99.90;;;;;;4975315;28;20529;-68
2022/08/18 09:09:48;;;;;;;;;;;22.60;99.90;;;;;;4974847;28;20018;-67
2022/08/18 09:12:24;;;;;;;;;;;22.60;99.90;;;;;;4975366;28;20328;-67
2022/08/18 09:14:58;;;;;;;;;;;22.60;99.90;;;;;;4975102;28;20890;-67
2022/08/18 09:17:37;;;;;;;;;;;22.50;99.90;;;;;;4974369;28;20755;-67
2022/08/18 09:20:10;;;;;;;;;;;22.50;99.90;;;;;;4974866;28;20869;-66
2022/08/18 09:22:44;;;;;;;;;;;22.50;99.90;;;;;;4975090;28;21185;-67
2022/08/18 09:25:28;;;;;;;;;;;22.50;99.90;;;;;;4974943;28;20059;-67
2022/08/18 09:28:10;;;;;;;;;;;22.40;99.90;;;;;;4974786;28;19984;-67
2022/08/18 09:30:40;;;;;;;;;;;22.40;99.90;;;;;;4974759;28;20082;-67
2022/08/18 09:33:20;;;;;;;;;;;22.20;99.90;;;;;;4974078;28;19971;-67
2022/08/18 09:35:59;;;;;;;;;;;22.20;99.90;;;;;;4974768;28;19975;-67
2022/08/18 09:41:32;;;;;;;;;;;22.20;99.90;;;;;;4974511;28;20482;-67
2022/08/18 09:44:09;;;;;;;;;;;22.20;99.90;;;;;;4974734;28;19992;-67
2022/08/18 09:46:59;;;;;;;;;;;22.30;99.90;;;;;;4973666;28;20034;-67
2022/08/18 09:49:38;;;;;;;;;;;22.40;99.90;;;;;;4973871;28;20442;-67
2022/08/18 09:52:32;;;;;;;;;;;22.50;99.90;;;;;;4974480;28;20516;-67
2022/08/18 09:55:06;;;;;;;;;;;22.40;99.90;;;;;;4974290;28;20173;-67
2022/08/18 09:57:35;;;;;;;;;;;22.50;99.90;;;;;;4974324;28;20021;-67
2022/08/18 10:00:30;;;;;;;;;;;22.50;99.90;;;;;;4973791;28;20073;-67
2022/08/18 10:03:03;;;;;;;;;;;22.40;99.90;;;;;;4958837;28;20018;-67
2022/08/18 10:05:31;;;;;;;;;;;22.40;99.90;;;;;;4954660;29;19989;-67
2022/08/18 10:08:15;;;;;;;;;;;22.40;99.90;;;;;;4954913;29;20066;-67
2022/08/18 10:10:53;;;;;;;;;;;22.50;99.90;;;;;;4954698;29;20028;-67
2022/08/18 10:13:42;;;;;;;;;;;22.60;99.90;;;;;;4954843;28;20034;-68
2022/08/18 10:16:20;;;;;;;;;;;22.40;99.90;;;;;;4955259;28;20392;-67
2022/08/18 10:18:56;;;;;;;;;;;22.50;99.90;;;;;;4964710;28;19971;-67
2022/08/18 10:21:27;;;;;;;;;;;22.60;99.90;;;;;;4954466;29;20014;-67
2022/08/18 10:24:14;;;;;;;;;;;22.60;99.90;;;;;;4954697;29;19975;-67
2022/08/18 10:27:03;;;;;;;;;;;22.50;99.90;;;;;;4954630;28;20390;-67
2022/08/18 10:29:58;;;;;;;;;;;22.60;99.90;;;;;;4953950;29;19965;-67
2022/08/18 10:32:43;;;;;;;;;;;22.70;99.90;;;;;;4931088;28;19976;-67
2022/08/18 10:35:51;;;;;;;;;;;22.80;99.90;;;;;;4954386;29;19975;-67
2022/08/18 10:38:24;;;;;;;;;;;22.80;99.90;;;;;;4954353;29;19975;-67
2022/08/18 10:41:01;;;;;;;;;;;22.80;99.90;;;;;;4954169;28;19977;-67
2022/08/18 10:43:40;;;;;;;;;;;22.70;99.90;;;;;;4951952;28;20055;-67
2022/08/18 10:46:24;;;;;;;;;;;22.80;99.90;;;;;;4954173;29;19989;-67
2022/08/18 10:49:01;;;;;;;;;;;22.80;99.90;;;;;;4954233;29;20381;-67
2022/08/18 10:51:40;;;;;;;;;;;22.80;99.90;;;;;;4962627;28;20068;-67
2022/08/18 10:54:35;;;;;;;;;;;22.80;99.90;;;;;;4935418;29;19971;-67
2022/08/18 10:57:23;;;;;;;;;;;22.70;99.90;;;;;;4934995;29;20254;-67
2022/08/18 10:59:56;;;;;;;;;;;22.70;99.90;;;;;;4933616;29;20063;-67
2022/08/18 11:02:37;;;;;;;;;;;22.80;99.90;;;;;;4959702;28;19973;-67
2022/08/18 11:05:06;;;;;;;;;;;22.80;99.90;;;;;;4973170;28;20019;-67
2022/08/18 11:07:37;;;;;;;;;;;22.90;99.90;;;;;;4972971;28;20060;-67
2022/08/18 11:10:17;;;;;;;;;;;23.00;99.90;;;;;;4972691;28;19998;-66
2022/08/18 11:13:11;;;;;;;;;;;22.90;99.90;;;;;;4973340;28;20031;-66
2022/08/18 11:19:07;;;;;;;;;;;23.20;99.90;;;;;;4934746;29;19983;-67
2022/08/18 11:21:38;;;;;;;;;;;23.40;99.90;;;;;;4934305;29;20362;-67
2022/08/18 11:24:15;;;;;;;;;;;23.60;99.90;;;;;;4934626;29;20531;-67
2022/08/18 11:26:45;;;;;;;;;;;23.70;99.90;;;;;;4934570;29;20630;-67
2022/08/18 11:29:22;;;;;;;;;;;23.90;99.90;;;;;;4934509;29;20846;-67
2022/08/18 11:31:53;;;;;;;;;;;24.10;99.90;;;;;;4944845;28;20247;-67
2022/08/18 11:34:28;;;;;;;;;;;24.20;99.90;;;;;;4953776;29;19985;-67
2022/08/18 11:36:58;;;;;;;;;;;24.20;99.90;;;;;;4953600;29;20869;-67
2022/08/18 11:39:26;;;;;;;;;;;24.30;99.90;;;;;;4953217;29;20583;-67
2022/08/18 11:42:16;;;;;;;;;;;24.40;99.90;;;;;;4953342;29;20074;-67
2022/08/18 11:44:54;;;;;;;;;;;24.70;99.90;;;;;;4953651;29;20035;-66
2022/08/18 11:47:22;;;;;;;;;;;25.10;99.90;;;;;;4953623;29;20013;-67
2022/08/18 11:49:58;;;;;;;;;;;25.70;99.90;;;;;;4953100;29;20111;-67
2022/08/18 11:52:30;;;;;;;;;;;25.80;99.90;;;;;;4954342;28;20700;-67
2022/08/18 11:55:03;;;;;;;;;;;26.00;99.90;;;;;;4953501;28;20308;-67
2022/08/18 11:57:53;;;;;;;;;;;26.00;99.90;;;;;;4953673;29;20202;-67
2022/08/18 12:00:39;;;;;;;;;;;25.90;99.90;;;;;;4952822;28;20875;-67
2022/08/18 12:03:30;;;;;;;;;;;25.30;99.90;;;;;;4953511;29;20098;-66
2022/08/18 12:06:00;;;;;;;;;;;25.40;99.90;;;;;;4955639;28;20737;-67
2022/08/18 12:08:32;;;;;;;;;;;25.60;99.90;;;;;;4972621;28;20522;-67
2022/08/18 12:11:21;;;;;;;;;;;25.80;99.90;;;;;;4973504;28;20372;-67
2022/08/18 12:13:59;;;;;;;;;;;26.00;99.90;;;;;;4977378;28;19983;-67
2022/08/18 12:16:47;;;;;;;;;;;26.20;99.90;;;;;;4976376;28;20097;-67
2022/08/18 12:19:17;;;;;;;;;;;26.60;99.90;;;;;;4975994;28;20008;-66
2022/08/18 12:21:50;;;;;;;;;;;26.70;99.90;;;;;;4975977;28;20574;-66
2022/08/18 12:24:19;;;;;;;;;;;26.60;99.90;;;;;;4975892;28;20721;-66
2022/08/18 12:26:55;;;;;;;;;;;27.10;99.90;;;;;;4967483;28;20649;-66
2022/08/18 12:29:28;;;;;;;;;;;27.50;99.90;;;;;;4956561;29;20385;-66
2022/08/18 12:32:16;;;;;;;;;;;27.90;99.90;;;;;;4956578;29;20095;-66
2022/08/18 12:35:05;;;;;;;;;;;28.20;99.90;;;;;;4956749;28;20381;-67
2022/08/18 12:37:37;;;;;;;;;;;28.50;99.90;;;;;;4956600;29;20776;-66
2022/08/18 12:40:25;;;;;;;;;;;28.80;99.90;;;;;;4956101;28;20601;-67
2022/08/18 12:42:53;;;;;;;;;;;29.00;99.90;;;;;;4956326;28;20720;-67
2022/08/18 12:45:24;;;;;;;;;;;28.70;99.90;;;;;;4956446;28;21181;-66
2022/08/18 12:47:53;;;;;;;;;;;28.60;99.90;;;;;;4959812;28;25142;-66
2022/08/18 12:50:21;;;;;;;;;;;28.80;99.90;;;;;;4959125;28;20098;-67
2022/08/18 12:53:00;;;;;;;;;;;29.10;99.90;;;;;;4956194;29;20931;-66
2022/08/18 12:55:31;;;;;;;;;;;29.50;99.90;;;;;;4956374;28;20239;-67
2022/08/18 12:57:59;;;;;;;;;;;29.60;99.90;;;;;;4964434;28;20366;-67
2022/08/18 13:00:28;;;;;;;;;;;29.90;99.60;;;;;;4974920;28;20076;-67
2022/08/18 13:02:56;;;;;;;;;;;30.10;98.50;;;;;;4975110;28;20698;-66
2022/08/18 13:05:24;;;;;;;;;;;30.00;98.60;;;;;;4974713;28;20258;-66
2022/08/18 13:07:58;;;;;;;;;;;30.10;98.50;;;;;;4975370;28;20516;-66
2022/08/18 13:10:25;;;;;;;;;;;30.20;98.90;;;;;;4975045;28;20686;-68
2022/08/18 13:13:12;;;;;;;;;;;30.40;98.00;;;;;;4975464;28;20418;-66
2022/08/18 13:15:42;;;;;;;;;;;30.40;97.90;;;;;;4975144;28;20240;-67
2022/08/18 13:18:25;;;;;;;;;;;30.60;97.30;;;;;;4975333;28;20368;-67
2022/08/18 13:20:56;;;;;;;;;;;30.40;96.40;;;;;;4974761;28;20318;-66
2022/08/18 13:23:26;;;;;;;;;;;30.40;96.90;;;;;;4972877;28;20111;-67
2022/08/18 13:25:54;;;;;;;;;;;30.30;95.90;;;;;;4955790;28;20382;-66
2022/08/18 13:28:30;;;;;;;;;;;30.10;96.50;;;;;;4973067;28;20855;-66
2022/08/18 13:31:04;;;;;;;;;;;30.10;96.00;;;;;;4974472;28;20391;-66
2022/08/18 13:33:32;;;;;;;;;;;30.10;96.70;;;;;;4974999;28;20646;-67
2022/08/18 13:36:20;;;;;;;;;;;30.40;97.00;;;;;;4974992;28;21174;-67
2022/08/18 13:38:49;;;;;;;;;;;30.60;96.00;;;;;;4973686;28;25102;-66
2022/08/18 13:41:22;;;;;;;;;;;30.20;96.10;;;;;;4974507;28;20315;-66
2022/08/18 13:43:52;;;;;;;;;;;29.70;96.30;;;;;;4955756;28;20676;-67
2022/08/18 13:46:28;;;;;;;;;;;29.60;96.50;;;;;;4955741;28;20248;-68
2022/08/18 13:49:01;;;;;;;;;;;30.00;96.60;;;;;;4955358;28;20753;-67
2022/08/18 13:51:30;;;;;;;;;;;30.20;95.60;;;;;;4953795;28;20453;-68
2022/08/18 13:54:00;;;;;;;;;;;30.70;95.40;;;;;;4955334;28;20225;-68
2022/08/18 13:56:48;;;;;;;;;;;31.20;95.80;;;;;;4955231;28;20217;-67
2022/08/18 13:59:19;;;;;;;;;;;31.30;96.20;;;;;;4957862;28;20624;-68
2022/08/18 14:01:49;;;;;;;;;;;31.20;95.60;;;;;;4973797;28;21375;-68
2022/08/18 14:04:20;;;;;;;;;;;31.50;95.40;;;;;;4974043;28;25099;-69
2022/08/18 14:06:50;;;;;;;;;;;31.70;94.80;;;;;;4974298;28;20248;-68
2022/08/18 14:09:25;;;;;;;;;;;31.80;94.30;;;;;;4974247;28;20637;-68
2022/08/18 14:12:05;;;;;;;;;;;32.00;93.80;;;;;;4973908;28;20499;-70
2022/08/18 14:14:33;;;;;;;;;;;32.10;93.70;;;;;;4974138;28;20634;-68
2022/08/18 14:17:04;;;;;;;;;;;31.80;94.00;;;;;;4974010;28;20570;-68
2022/08/18 14:27:50;;;;;;;;;;;30.40;95.50;;;;;;4973982;28;20588;-68
2022/08/18 14:30:23;;;;;;;;;;;30.50;95.30;;;;;;4973491;28;25104;-66
2022/08/18 14:32:53;;;;;;;;;;;30.30;95.50;;;;;;4973560;28;20235;-66
2022/08/18 14:35:24;;;;;;;;;;;29.90;95.40;;;;;;4964113;28;20251;-67
2022/08/18 14:38:13;;;;;;;;;;;29.70;95.60;;;;;;4954538;29;20844;-67
2022/08/18 14:40:43;;;;;;;;;;;29.40;95.80;;;;;;4954129;29;20255;-67
2022/08/18 14:43:11;;;;;;;;;;;29.20;96.00;;;;;;4954251;29;20819;-67
2022/08/18 14:45:44;;;;;;;;;;;29.20;96.40;;;;;;4954189;29;25074;-68
2022/08/18 14:48:14;;;;;;;;;;;29.40;96.30;;;;;;4954328;28;21344;-68
2022/08/18 14:50:43;;;;;;;;;;;29.40;96.10;;;;;;4953969;28;20858;-67
2022/08/18 14:53:16;;;;;;;;;;;29.10;96.70;;;;;;4954098;29;20555;-68
2022/08/18 14:55:45;;;;;;;;;;;28.90;97.20;;;;;;4954297;28;20967;-67
2022/08/18 14:58:16;;;;;;;;;;;28.90;97.20;;;;;;4971782;28;20238;-68
2022/08/18 15:00:46;;;;;;;;;;;28.90;97.10;;;;;;4972969;28;20143;-68
2022/08/18 15:03:22;;;;;;;;;;;29.10;97.10;;;;;;4973220;28;20741;-68
2022/08/18 15:05:59;;;;;;;;;;;29.60;97.40;;;;;;4973563;28;20799;-67
2022/08/18 15:08:27;;;;;;;;;;;29.80;96.50;;;;;;4973318;28;20606;-67
2022/08/18 15:10:56;;;;;;;;;;;30.00;96.50;;;;;;4973026;28;20586;-68
2022/08/18 15:13:24;;;;;;;;;;;29.80;96.50;;;;;;4972768;28;21034;-67